This is the latest recevied weather packets stored in our database for station/object K4AMF. If no packets are shown the sender has not sent any weather packets the latest 10 day(s).
| Time | Temp. | Humidity | Pressure | Rain* | Wind** | Luminosity | Snow |
|---|---|---|---|---|---|---|---|
| 1778186014 | 29.44° C | 63% | 1013.4 hPa | 0 mm | - | 380 W/m² | - |
| 1778185709 | 29.44° C | 64% | 1013.8 hPa | 0 mm | - | 337 W/m² | - |
| 1778185406 | 29.44° C | 65% | 1013.9 hPa | 0 mm | - | 238 W/m² | - |
| 1778185101 | 29.44° C | 65% | 1014.2 hPa | 0 mm | - | 319 W/m² | - |
| 1778184797 | 28.89° C | 66% | 1014.2 hPa | 0 mm | - | 335 W/m² | - |
| 1778184494 | 28.89° C | 66% | 1013.9 hPa | 0 mm | - | 155 W/m² | - |
| 1778184190 | 28.89° C | 66% | 1014.1 hPa | 0 mm | - | 141 W/m² | - |
| 1778183886 | 28.89° C | 66% | 1014.2 hPa | 0 mm | - | 122 W/m² | - |
| 1778183584 | 28.89° C | 66% | 1014.1 hPa | 0 mm | - | 125 W/m² | - |
| 1778183281 | 28.89° C | 66% | 1013.8 hPa | 0 mm | - | 168 W/m² | - |
| 1778182976 | 28.89° C | 66% | 1013.7 hPa | 0 mm | - | 188 W/m² | - |
| 1778182673 | 29.44° C | 65% | 1014 hPa | 0 mm | - | 244 W/m² | - |
| 1778182370 | 29.44° C | 65% | 1014.1 hPa | 0 mm | - | 344 W/m² | - |
| 1778182066 | 29.44° C | 64% | 1014.8 hPa | 0 mm | - | 275 W/m² | - |
| 1778181763 | 29.44° C | 64% | 1015 hPa | 0 mm | - | 352 W/m² | - |
| 1778181459 | 28.89° C | 65% | 1015.1 hPa | 0 mm | - | 224 W/m² | - |
| 1778181156 | 28.89° C | 65% | 1015.2 hPa | 0 mm | - | 159 W/m² | - |
| 1778180853 | 29.44° C | 64% | 1015.1 hPa | 0 mm | - | 168 W/m² | - |
| 1778180551 | 30° C | 64% | 1015.1 hPa | 0 mm | - | 250 W/m² | - |
| 1778180250 | 28.89° C | 66% | 1015 hPa | 0 mm | - | 291 W/m² | - |
| 1778179946 | 28.89° C | 65% | 1015 hPa | 0 mm | - | 307 W/m² | - |
| 1778179644 | 30° C | 61% | 1015 hPa | 0 mm | - | 253 W/m² | - |
| 1778179342 | 30° C | 58% | 1015.2 hPa | 0 mm | - | 195 W/m² | - |
| 1778179038 | 30° C | 58% | 1015.3 hPa | 0 mm | - | 237 W/m² | - |
| 1778178735 | 30.56° C | 57% | 1015.1 hPa | 0 mm | - | 275 W/m² | - |
* Rain latest hour (hover to see other rain measurements)
** Current wind speed in m/s (hover to see current wind gust speed)